sensor_id;sensor_type;location;lat;lon;timestamp;P1;durP1;ratioP1;P2;durP2;ratioP2
28311;SDS011;15572;48.810;9.148;2023-12-20T00:00:45;2.27;;;1.73;;
28311;SDS011;15572;48.810;9.148;2023-12-20T00:05:41;2.17;;;1.73;;
28311;SDS011;15572;48.810;9.148;2023-12-20T00:10:37;2.40;;;1.40;;
28311;SDS011;15572;48.810;9.148;2023-12-20T00:15:35;2.00;;;1.67;;
28311;SDS011;15572;48.810;9.148;2023-12-20T00:20:31;2.70;;;1.60;;
28311;SDS011;15572;48.810;9.148;2023-12-20T00:25:28;1.60;;;1.40;;
28311;SDS011;15572;48.810;9.148;2023-12-20T00:30:24;2.10;;;1.80;;
28311;SDS011;15572;48.810;9.148;2023-12-20T00:35:22;1.77;;;1.67;;
28311;SDS011;15572;48.810;9.148;2023-12-20T00:40:18;2.80;;;1.93;;
28311;SDS011;15572;48.810;9.148;2023-12-20T00:45:15;3.03;;;2.73;;
28311;SDS011;15572;48.810;9.148;2023-12-20T00:50:12;3.30;;;2.70;;
28311;SDS011;15572;48.810;9.148;2023-12-20T00:55:10;2.87;;;2.00;;
28311;SDS011;15572;48.810;9.148;2023-12-20T01:00:06;1.97;;;1.60;;
28311;SDS011;15572;48.810;9.148;2023-12-20T01:05:05;2.43;;;1.77;;
28311;SDS011;15572;48.810;9.148;2023-12-20T01:10:02;2.13;;;1.30;;
28311;SDS011;15572;48.810;9.148;2023-12-20T01:15:00;3.83;;;1.53;;
28311;SDS011;15572;48.810;9.148;2023-12-20T01:19:56;1.40;;;1.30;;
28311;SDS011;15572;48.810;9.148;2023-12-20T01:24:53;2.37;;;1.47;;
28311;SDS011;15572;48.810;9.148;2023-12-20T01:29:49;1.83;;;1.53;;
28311;SDS011;15572;48.810;9.148;2023-12-20T01:34:47;1.80;;;1.70;;
28311;SDS011;15572;48.810;9.148;2023-12-20T01:39:43;2.43;;;1.67;;
28311;SDS011;15572;48.810;9.148;2023-12-20T01:44:40;1.50;;;1.40;;
28311;SDS011;15572;48.810;9.148;2023-12-20T01:49:36;3.77;;;2.20;;
28311;SDS011;15572;48.810;9.148;2023-12-20T01:54:34;4.17;;;2.70;;
28311;SDS011;15572;48.810;9.148;2023-12-20T01:59:31;2.50;;;2.20;;
28311;SDS011;15572;48.810;9.148;2023-12-20T02:04:28;3.50;;;2.57;;
28311;SDS011;15572;48.810;9.148;2023-12-20T02:09:25;3.00;;;2.70;;
28311;SDS011;15572;48.810;9.148;2023-12-20T02:14:24;2.37;;;2.13;;
28311;SDS011;15572;48.810;9.148;2023-12-20T02:19:21;3.30;;;2.47;;
28311;SDS011;15572;48.810;9.148;2023-12-20T02:24:19;4.00;;;2.43;;
28311;SDS011;15572;48.810;9.148;2023-12-20T02:29:15;5.83;;;3.10;;
28311;SDS011;15572;48.810;9.148;2023-12-20T02:34:11;4.03;;;3.30;;
28311;SDS011;15572;48.810;9.148;2023-12-20T02:39:08;4.63;;;3.40;;
28311;SDS011;15572;48.810;9.148;2023-12-20T02:44:06;4.93;;;3.77;;
28311;SDS011;15572;48.810;9.148;2023-12-20T02:49:02;5.97;;;3.90;;
28311;SDS011;15572;48.810;9.148;2023-12-20T02:53:58;5.37;;;3.80;;
28311;SDS011;15572;48.810;9.148;2023-12-20T02:58:55;5.60;;;2.90;;
28311;SDS011;15572;48.810;9.148;2023-12-20T03:03:52;5.77;;;2.90;;
28311;SDS011;15572;48.810;9.148;2023-12-20T03:08:49;2.57;;;1.23;;
28311;SDS011;15572;48.810;9.148;2023-12-20T03:13:45;2.30;;;0.80;;
28311;SDS011;15572;48.810;9.148;2023-12-20T03:18:42;0.60;;;0.60;;
28311;SDS011;15572;48.810;9.148;2023-12-20T03:23:39;0.67;;;0.47;;
28311;SDS011;15572;48.810;9.148;2023-12-20T03:28:36;0.43;;;0.40;;
28311;SDS011;15572;48.810;9.148;2023-12-20T03:33:32;0.40;;;0.40;;
28311;SDS011;15572;48.810;9.148;2023-12-20T03:38:29;1.43;;;0.60;;
28311;SDS011;15572;48.810;9.148;2023-12-20T03:43:27;0.50;;;0.50;;
28311;SDS011;15572;48.810;9.148;2023-12-20T03:48:23;1.20;;;1.00;;
28311;SDS011;15572;48.810;9.148;2023-12-20T03:53:19;0.50;;;0.50;;
28311;SDS011;15572;48.810;9.148;2023-12-20T03:58:16;0.63;;;0.43;;
28311;SDS011;15572;48.810;9.148;2023-12-20T04:03:13;0.30;;;0.30;;
28311;SDS011;15572;48.810;9.148;2023-12-20T04:08:10;0.50;;;0.50;;
28311;SDS011;15572;48.810;9.148;2023-12-20T04:13:07;0.53;;;0.43;;
28311;SDS011;15572;48.810;9.148;2023-12-20T04:18:03;0.40;;;0.40;;
28311;SDS011;15572;48.810;9.148;2023-12-20T04:23:01;0.33;;;0.33;;
28311;SDS011;15572;48.810;9.148;2023-12-20T04:27:58;1.47;;;0.60;;
28311;SDS011;15572;48.810;9.148;2023-12-20T04:32:54;0.40;;;0.40;;
28311;SDS011;15572;48.810;9.148;2023-12-20T04:37:52;2.43;;;0.50;;
28311;SDS011;15572;48.810;9.148;2023-12-20T04:42:49;0.30;;;0.30;;
28311;SDS011;15572;48.810;9.148;2023-12-20T04:47:46;0.90;;;0.50;;
28311;SDS011;15572;48.810;9.148;2023-12-20T04:52:42;1.23;;;0.40;;
28311;SDS011;15572;48.810;9.148;2023-12-20T04:57:39;2.00;;;0.40;;
28311;SDS011;15572;48.810;9.148;2023-12-20T05:02:37;0.40;;;0.40;;
28311;SDS011;15572;48.810;9.148;2023-12-20T05:07:33;0.40;;;0.40;;
28311;SDS011;15572;48.810;9.148;2023-12-20T05:12:30;0.40;;;0.40;;
28311;SDS011;15572;48.810;9.148;2023-12-20T05:17:26;0.93;;;0.50;;
28311;SDS011;15572;48.810;9.148;2023-12-20T05:22:24;0.60;;;0.40;;
28311;SDS011;15572;48.810;9.148;2023-12-20T05:27:22;0.67;;;0.60;;
28311;SDS011;15572;48.810;9.148;2023-12-20T05:32:18;0.87;;;0.50;;
28311;SDS011;15572;48.810;9.148;2023-12-20T05:37:15;0.50;;;0.50;;
28311;SDS011;15572;48.810;9.148;2023-12-20T05:42:13;0.50;;;0.50;;
28311;SDS011;15572;48.810;9.148;2023-12-20T05:47:09;0.70;;;0.60;;
28311;SDS011;15572;48.810;9.148;2023-12-20T05:52:05;1.30;;;0.60;;
28311;SDS011;15572;48.810;9.148;2023-12-20T05:57:02;0.67;;;0.63;;
28311;SDS011;15572;48.810;9.148;2023-12-20T06:02:00;0.63;;;0.60;;
28311;SDS011;15572;48.810;9.148;2023-12-20T06:06:56;0.70;;;0.70;;
28311;SDS011;15572;48.810;9.148;2023-12-20T06:11:53;1.37;;;0.73;;
28311;SDS011;15572;48.810;9.148;2023-12-20T06:16:49;0.80;;;0.80;;
28311;SDS011;15572;48.810;9.148;2023-12-20T06:21:47;0.70;;;0.70;;
28311;SDS011;15572;48.810;9.148;2023-12-20T06:26:44;1.73;;;0.67;;
28311;SDS011;15572;48.810;9.148;2023-12-20T06:31:40;0.70;;;0.70;;
28311;SDS011;15572;48.810;9.148;2023-12-20T06:36:36;1.03;;;0.83;;
28311;SDS011;15572;48.810;9.148;2023-12-20T06:41:34;1.07;;;1.00;;
28311;SDS011;15572;48.810;9.148;2023-12-20T06:46:31;1.23;;;1.10;;
28311;SDS011;15572;48.810;9.148;2023-12-20T06:51:28;2.17;;;1.10;;
28311;SDS011;15572;48.810;9.148;2023-12-20T06:56:25;1.27;;;1.00;;
28311;SDS011;15572;48.810;9.148;2023-12-20T07:01:23;1.30;;;1.20;;
28311;SDS011;15572;48.810;9.148;2023-12-20T07:06:20;1.60;;;1.50;;
28311;SDS011;15572;48.810;9.148;2023-12-20T07:11:16;3.77;;;2.83;;
28311;SDS011;15572;48.810;9.148;2023-12-20T07:16:13;3.27;;;2.53;;
28311;SDS011;15572;48.810;9.148;2023-12-20T07:21:10;4.77;;;3.83;;
28311;SDS011;15572;48.810;9.148;2023-12-20T07:26:07;3.37;;;3.07;;
28311;SDS011;15572;48.810;9.148;2023-12-20T07:31:03;2.43;;;2.23;;
28311;SDS011;15572;48.810;9.148;2023-12-20T07:36:00;2.50;;;2.20;;
28311;SDS011;15572;48.810;9.148;2023-12-20T07:40:57;2.50;;;2.30;;
28311;SDS011;15572;48.810;9.148;2023-12-20T07:45:54;3.10;;;2.57;;
28311;SDS011;15572;48.810;9.148;2023-12-20T07:50:50;3.67;;;2.70;;
28311;SDS011;15572;48.810;9.148;2023-12-20T07:55:48;3.43;;;2.60;;
28311;SDS011;15572;48.810;9.148;2023-12-20T08:00:45;4.43;;;2.80;;
28311;SDS011;15572;48.810;9.148;2023-12-20T08:05:42;4.53;;;2.80;;
28311;SDS011;15572;48.810;9.148;2023-12-20T08:10:38;5.07;;;3.10;;
28311;SDS011;15572;48.810;9.148;2023-12-20T08:15:35;4.97;;;3.80;;
28311;SDS011;15572;48.810;9.148;2023-12-20T08:20:34;4.20;;;3.00;;
28311;SDS011;15572;48.810;9.148;2023-12-20T08:25:31;3.93;;;2.80;;
28311;SDS011;15572;48.810;9.148;2023-12-20T08:30:28;4.00;;;3.10;;
28311;SDS011;15572;48.810;9.148;2023-12-20T08:35:26;4.90;;;3.10;;
28311;SDS011;15572;48.810;9.148;2023-12-20T08:40:23;4.20;;;3.00;;
28311;SDS011;15572;48.810;9.148;2023-12-20T08:45:20;3.90;;;2.73;;
28311;SDS011;15572;48.810;9.148;2023-12-20T08:50:16;4.80;;;2.63;;
28311;SDS011;15572;48.810;9.148;2023-12-20T08:55:13;7.23;;;2.70;;
28311;SDS011;15572;48.810;9.148;2023-12-20T09:00:13;2.90;;;2.60;;
28311;SDS011;15572;48.810;9.148;2023-12-20T09:05:10;3.07;;;2.57;;
28311;SDS011;15572;48.810;9.148;2023-12-20T09:10:07;4.23;;;2.90;;
28311;SDS011;15572;48.810;9.148;2023-12-20T09:15:04;6.07;;;3.30;;
28311;SDS011;15572;48.810;9.148;2023-12-20T09:20:03;4.57;;;2.97;;
28311;SDS011;15572;48.810;9.148;2023-12-20T09:25:02;5.17;;;2.50;;
28311;SDS011;15572;48.810;9.148;2023-12-20T09:29:58;3.53;;;2.47;;
28311;SDS011;15572;48.810;9.148;2023-12-20T09:34:55;3.17;;;1.80;;
28311;SDS011;15572;48.810;9.148;2023-12-20T09:39:53;2.93;;;1.80;;
28311;SDS011;15572;48.810;9.148;2023-12-20T09:44:50;5.33;;;1.73;;
28311;SDS011;15572;48.810;9.148;2023-12-20T09:49:46;6.17;;;1.50;;
28311;SDS011;15572;48.810;9.148;2023-12-20T09:54:43;2.37;;;1.50;;
28311;SDS011;15572;48.810;9.148;2023-12-20T09:59:42;5.47;;;1.50;;
28311;SDS011;15572;48.810;9.148;2023-12-20T10:04:39;4.57;;;1.60;;
28311;SDS011;15572;48.810;9.148;2023-12-20T10:09:41;4.90;;;1.60;;
28311;SDS011;15572;48.810;9.148;2023-12-20T10:14:38;3.77;;;1.50;;
28311;SDS011;15572;48.810;9.148;2023-12-20T10:19:36;3.73;;;1.47;;
28311;SDS011;15572;48.810;9.148;2023-12-20T10:24:33;5.73;;;1.73;;
28311;SDS011;15572;48.810;9.148;2023-12-20T10:29:31;4.57;;;1.27;;
28311;SDS011;15572;48.810;9.148;2023-12-20T10:34:29;5.63;;;1.63;;
28311;SDS011;15572;48.810;9.148;2023-12-20T10:39:29;4.70;;;1.70;;
28311;SDS011;15572;48.810;9.148;2023-12-20T10:44:27;4.97;;;1.73;;
28311;SDS011;15572;48.810;9.148;2023-12-20T10:49:23;8.87;;;1.80;;
28311;SDS011;15572;48.810;9.148;2023-12-20T10:54:22;5.43;;;1.70;;
28311;SDS011;15572;48.810;9.148;2023-12-20T10:59:20;5.20;;;1.60;;
28311;SDS011;15572;48.810;9.148;2023-12-20T11:04:18;4.10;;;1.20;;
28311;SDS011;15572;48.810;9.148;2023-12-20T11:09:20;5.63;;;1.50;;
28311;SDS011;15572;48.810;9.148;2023-12-20T11:14:23;5.10;;;1.63;;
28311;SDS011;15572;48.810;9.148;2023-12-20T11:19:25;3.53;;;1.60;;
28311;SDS011;15572;48.810;9.148;2023-12-20T11:24:21;2.43;;;1.50;;
28311;SDS011;15572;48.810;9.148;2023-12-20T11:34:34;4.17;;;1.37;;
28311;SDS011;15572;48.810;9.148;2023-12-20T11:39:32;3.50;;;1.50;;
28311;SDS011;15572;48.810;9.148;2023-12-20T11:44:28;5.47;;;1.73;;
28311;SDS011;15572;48.810;9.148;2023-12-20T11:49:28;2.67;;;1.30;;
28311;SDS011;15572;48.810;9.148;2023-12-20T11:54:25;5.30;;;1.40;;
28311;SDS011;15572;48.810;9.148;2023-12-20T11:59:22;2.37;;;1.23;;
28311;SDS011;15572;48.810;9.148;2023-12-20T12:04:19;3.07;;;1.53;;
28311;SDS011;15572;48.810;9.148;2023-12-20T12:09:17;7.60;;;1.80;;
28311;SDS011;15572;48.810;9.148;2023-12-20T12:14:13;9.27;;;1.80;;
28311;SDS011;15572;48.810;9.148;2023-12-20T12:19:19;6.03;;;1.70;;
28311;SDS011;15572;48.810;9.148;2023-12-20T12:24:19;3.53;;;1.50;;
28311;SDS011;15572;48.810;9.148;2023-12-20T12:29:17;3.93;;;1.57;;
28311;SDS011;15572;48.810;9.148;2023-12-20T12:34:13;6.43;;;1.73;;
28311;SDS011;15572;48.810;9.148;2023-12-20T12:39:11;3.53;;;1.50;;
28311;SDS011;15572;48.810;9.148;2023-12-20T12:44:11;5.13;;;1.70;;
28311;SDS011;15572;48.810;9.148;2023-12-20T12:49:07;7.13;;;1.93;;
28311;SDS011;15572;48.810;9.148;2023-12-20T12:54:04;4.83;;;1.60;;
28311;SDS011;15572;48.810;9.148;2023-12-20T12:59:00;5.17;;;1.47;;
28311;SDS011;15572;48.810;9.148;2023-12-20T13:03:58;5.53;;;1.50;;
28311;SDS011;15572;48.810;9.148;2023-12-20T13:08:56;1.83;;;0.80;;
28311;SDS011;15572;48.810;9.148;2023-12-20T13:13:53;3.77;;;1.13;;
28311;SDS011;15572;48.810;9.148;2023-12-20T13:18:49;5.13;;;1.27;;
28311;SDS011;15572;48.810;9.148;2023-12-20T13:23:47;4.07;;;1.50;;
28311;SDS011;15572;48.810;9.148;2023-12-20T13:28:43;8.10;;;1.40;;
28311;SDS011;15572;48.810;9.148;2023-12-20T13:33:39;4.70;;;1.00;;
28311;SDS011;15572;48.810;9.148;2023-12-20T13:38:36;3.00;;;1.30;;
28311;SDS011;15572;48.810;9.148;2023-12-20T13:43:34;6.03;;;1.20;;
28311;SDS011;15572;48.810;9.148;2023-12-20T13:48:31;4.93;;;1.33;;
28311;SDS011;15572;48.810;9.148;2023-12-20T13:53:27;3.40;;;1.30;;
28311;SDS011;15572;48.810;9.148;2023-12-20T13:58:24;1.60;;;1.00;;
28311;SDS011;15572;48.810;9.148;2023-12-20T14:03:21;1.80;;;1.13;;
28311;SDS011;15572;48.810;9.148;2023-12-20T14:08:18;2.97;;;1.13;;
28311;SDS011;15572;48.810;9.148;2023-12-20T14:13:14;3.57;;;1.17;;
28311;SDS011;15572;48.810;9.148;2023-12-20T14:18:11;5.50;;;1.50;;
28311;SDS011;15572;48.810;9.148;2023-12-20T14:23:13;3.90;;;1.27;;
28311;SDS011;15572;48.810;9.148;2023-12-20T14:28:10;6.43;;;1.60;;
28311;SDS011;15572;48.810;9.148;2023-12-20T14:33:09;5.33;;;1.60;;
28311;SDS011;15572;48.810;9.148;2023-12-20T14:38:05;7.17;;;1.63;;
28311;SDS011;15572;48.810;9.148;2023-12-20T14:43:03;4.33;;;1.50;;
28311;SDS011;15572;48.810;9.148;2023-12-20T14:47:59;4.63;;;1.37;;
28311;SDS011;15572;48.810;9.148;2023-12-20T14:52:56;5.07;;;1.50;;
28311;SDS011;15572;48.810;9.148;2023-12-20T14:57:52;5.50;;;1.60;;
28311;SDS011;15572;48.810;9.148;2023-12-20T15:02:50;5.17;;;1.33;;
28311;SDS011;15572;48.810;9.148;2023-12-20T15:07:46;3.60;;;1.27;;
28311;SDS011;15572;48.810;9.148;2023-12-20T15:12:43;5.80;;;1.57;;
28311;SDS011;15572;48.810;9.148;2023-12-20T15:17:41;4.40;;;1.70;;
28311;SDS011;15572;48.810;9.148;2023-12-20T15:22:38;2.03;;;0.93;;
28311;SDS011;15572;48.810;9.148;2023-12-20T15:27:36;4.77;;;1.70;;
28311;SDS011;15572;48.810;9.148;2023-12-20T15:32:33;3.77;;;1.37;;
28311;SDS011;15572;48.810;9.148;2023-12-20T15:37:31;7.00;;;1.50;;
28311;SDS011;15572;48.810;9.148;2023-12-20T15:42:29;5.10;;;1.37;;
28311;SDS011;15572;48.810;9.148;2023-12-20T15:47:27;4.37;;;1.30;;
28311;SDS011;15572;48.810;9.148;2023-12-20T15:52:23;5.30;;;1.43;;
28311;SDS011;15572;48.810;9.148;2023-12-20T15:57:20;5.40;;;1.70;;
28311;SDS011;15572;48.810;9.148;2023-12-20T16:02:17;2.43;;;1.10;;
28311;SDS011;15572;48.810;9.148;2023-12-20T16:07:14;5.23;;;1.30;;
28311;SDS011;15572;48.810;9.148;2023-12-20T16:12:10;3.60;;;1.40;;
28311;SDS011;15572;48.810;9.148;2023-12-20T16:17:07;5.03;;;1.67;;
28311;SDS011;15572;48.810;9.148;2023-12-20T16:22:04;3.10;;;1.30;;
28311;SDS011;15572;48.810;9.148;2023-12-20T16:27:01;2.50;;;1.30;;
28311;SDS011;15572;48.810;9.148;2023-12-20T16:31:58;4.77;;;1.90;;
28311;SDS011;15572;48.810;9.148;2023-12-20T16:36:54;6.13;;;1.60;;
28311;SDS011;15572;48.810;9.148;2023-12-20T16:41:54;5.27;;;1.43;;
28311;SDS011;15572;48.810;9.148;2023-12-20T16:46:50;5.77;;;2.37;;
28311;SDS011;15572;48.810;9.148;2023-12-20T16:51:47;4.70;;;2.70;;
28311;SDS011;15572;48.810;9.148;2023-12-20T16:56:43;4.93;;;2.30;;
28311;SDS011;15572;48.810;9.148;2023-12-20T17:01:41;6.53;;;2.30;;
28311;SDS011;15572;48.810;9.148;2023-12-20T17:06:40;3.53;;;1.70;;
28311;SDS011;15572;48.810;9.148;2023-12-20T17:11:37;3.17;;;1.90;;
28311;SDS011;15572;48.810;9.148;2023-12-20T17:16:34;3.47;;;1.50;;
28311;SDS011;15572;48.810;9.148;2023-12-20T17:21:31;2.90;;;1.70;;
28311;SDS011;15572;48.810;9.148;2023-12-20T17:26:28;3.37;;;1.57;;
28311;SDS011;15572;48.810;9.148;2023-12-20T17:31:24;4.17;;;1.70;;
28311;SDS011;15572;48.810;9.148;2023-12-20T17:36:21;4.40;;;1.60;;
28311;SDS011;15572;48.810;9.148;2023-12-20T17:41:19;5.93;;;1.20;;
28311;SDS011;15572;48.810;9.148;2023-12-20T17:46:15;1.83;;;1.10;;
28311;SDS011;15572;48.810;9.148;2023-12-20T17:51:12;3.90;;;1.10;;
28311;SDS011;15572;48.810;9.148;2023-12-20T17:56:09;1.53;;;1.07;;
28311;SDS011;15572;48.810;9.148;2023-12-20T18:01:06;2.83;;;1.10;;
28311;SDS011;15572;48.810;9.148;2023-12-20T18:06:03;3.50;;;1.40;;
28311;SDS011;15572;48.810;9.148;2023-12-20T18:10:59;3.23;;;0.80;;
28311;SDS011;15572;48.810;9.148;2023-12-20T18:15:56;1.23;;;0.90;;
28311;SDS011;15572;48.810;9.148;2023-12-20T18:20:53;0.60;;;0.60;;
28311;SDS011;15572;48.810;9.148;2023-12-20T18:25:52;2.77;;;1.20;;
28311;SDS011;15572;48.810;9.148;2023-12-20T18:30:50;1.93;;;0.87;;
28311;SDS011;15572;48.810;9.148;2023-12-20T18:35:46;0.93;;;0.67;;
28311;SDS011;15572;48.810;9.148;2023-12-20T18:40:44;0.67;;;0.50;;
28311;SDS011;15572;48.810;9.148;2023-12-20T18:45:42;1.50;;;0.90;;
28311;SDS011;15572;48.810;9.148;2023-12-20T18:50:39;1.77;;;1.13;;
28311;SDS011;15572;48.810;9.148;2023-12-20T18:55:35;3.23;;;1.10;;
28311;SDS011;15572;48.810;9.148;2023-12-20T19:00:33;2.13;;;1.17;;
28311;SDS011;15572;48.810;9.148;2023-12-20T19:05:29;1.47;;;1.23;;
28311;SDS011;15572;48.810;9.148;2023-12-20T19:10:26;3.73;;;1.20;;
28311;SDS011;15572;48.810;9.148;2023-12-20T19:15:22;1.63;;;1.20;;
28311;SDS011;15572;48.810;9.148;2023-12-20T19:20:20;3.17;;;1.40;;
28311;SDS011;15572;48.810;9.148;2023-12-20T19:25:16;3.83;;;1.50;;
28311;SDS011;15572;48.810;9.148;2023-12-20T19:30:13;3.03;;;1.40;;
28311;SDS011;15572;48.810;9.148;2023-12-20T19:35:09;2.53;;;1.30;;
28311;SDS011;15572;48.810;9.148;2023-12-20T19:40:08;4.93;;;1.50;;
28311;SDS011;15572;48.810;9.148;2023-12-20T19:45:06;5.93;;;1.80;;
28311;SDS011;15572;48.810;9.148;2023-12-20T19:50:05;4.40;;;1.77;;
28311;SDS011;15572;48.810;9.148;2023-12-20T19:55:02;4.50;;;1.63;;
28311;SDS011;15572;48.810;9.148;2023-12-20T20:00:00;1.47;;;1.17;;
28311;SDS011;15572;48.810;9.148;2023-12-20T20:04:56;2.13;;;1.23;;
28311;SDS011;15572;48.810;9.148;2023-12-20T20:09:52;1.90;;;1.30;;
28311;SDS011;15572;48.810;9.148;2023-12-20T20:14:49;2.90;;;1.40;;
28311;SDS011;15572;48.810;9.148;2023-12-20T20:19:47;2.67;;;1.40;;
28311;SDS011;15572;48.810;9.148;2023-12-20T20:24:43;3.40;;;1.70;;
28311;SDS011;15572;48.810;9.148;2023-12-20T20:29:39;2.00;;;1.27;;
28311;SDS011;15572;48.810;9.148;2023-12-20T20:34:36;2.50;;;1.30;;
28311;SDS011;15572;48.810;9.148;2023-12-20T20:39:33;2.57;;;1.37;;
28311;SDS011;15572;48.810;9.148;2023-12-20T20:44:30;2.47;;;1.30;;
28311;SDS011;15572;48.810;9.148;2023-12-20T20:49:26;3.57;;;1.40;;
28311;SDS011;15572;48.810;9.148;2023-12-20T20:54:24;2.90;;;1.40;;
28311;SDS011;15572;48.810;9.148;2023-12-20T20:59:21;1.70;;;1.03;;
28311;SDS011;15572;48.810;9.148;2023-12-20T21:04:18;3.97;;;1.27;;
28311;SDS011;15572;48.810;9.148;2023-12-20T21:09:14;4.80;;;1.30;;
28311;SDS011;15572;48.810;9.148;2023-12-20T21:14:11;2.10;;;1.10;;
28311;SDS011;15572;48.810;9.148;2023-12-20T21:19:08;2.90;;;1.47;;
28311;SDS011;15572;48.810;9.148;2023-12-20T21:24:05;3.73;;;1.50;;
28311;SDS011;15572;48.810;9.148;2023-12-20T21:29:02;2.50;;;1.50;;
28311;SDS011;15572;48.810;9.148;2023-12-20T21:33:58;2.60;;;1.37;;
28311;SDS011;15572;48.810;9.148;2023-12-20T21:38:56;0.80;;;0.80;;
28311;SDS011;15572;48.810;9.148;2023-12-20T21:43:52;1.23;;;0.70;;
28311;SDS011;15572;48.810;9.148;2023-12-20T21:48:48;1.80;;;1.17;;
28311;SDS011;15572;48.810;9.148;2023-12-20T21:53:45;5.13;;;1.20;;
28311;SDS011;15572;48.810;9.148;2023-12-20T21:58:43;3.33;;;1.10;;
28311;SDS011;15572;48.810;9.148;2023-12-20T22:03:39;3.23;;;1.50;;
28311;SDS011;15572;48.810;9.148;2023-12-20T22:08:36;2.97;;;1.00;;
28311;SDS011;15572;48.810;9.148;2023-12-20T22:13:32;1.43;;;0.70;;
28311;SDS011;15572;48.810;9.148;2023-12-20T22:18:30;3.53;;;1.30;;
28311;SDS011;15572;48.810;9.148;2023-12-20T22:23:26;4.10;;;1.20;;
28311;SDS011;15572;48.810;9.148;2023-12-20T22:28:22;3.00;;;1.40;;
28311;SDS011;15572;48.810;9.148;2023-12-20T22:33:19;3.23;;;1.40;;
28311;SDS011;15572;48.810;9.148;2023-12-20T22:38:17;3.67;;;1.33;;
28311;SDS011;15572;48.810;9.148;2023-12-20T22:43:13;2.40;;;1.20;;
28311;SDS011;15572;48.810;9.148;2023-12-20T22:48:10;3.00;;;1.23;;
28311;SDS011;15572;48.810;9.148;2023-12-20T22:53:06;3.37;;;1.23;;
28311;SDS011;15572;48.810;9.148;2023-12-20T22:58:04;1.80;;;0.93;;
28311;SDS011;15572;48.810;9.148;2023-12-20T23:03:00;3.13;;;1.13;;
28311;SDS011;15572;48.810;9.148;2023-12-20T23:07:57;1.83;;;1.20;;
28311;SDS011;15572;48.810;9.148;2023-12-20T23:12:53;1.80;;;0.93;;
28311;SDS011;15572;48.810;9.148;2023-12-20T23:17:51;1.10;;;0.80;;
28311;SDS011;15572;48.810;9.148;2023-12-20T23:22:48;2.30;;;1.40;;
28311;SDS011;15572;48.810;9.148;2023-12-20T23:27:44;2.50;;;1.13;;
28311;SDS011;15572;48.810;9.148;2023-12-20T23:32:41;2.63;;;1.20;;
28311;SDS011;15572;48.810;9.148;2023-12-20T23:37:39;2.67;;;1.20;;
28311;SDS011;15572;48.810;9.148;2023-12-20T23:42:35;2.57;;;1.10;;
28311;SDS011;15572;48.810;9.148;2023-12-20T23:47:32;1.10;;;0.97;;
28311;SDS011;15572;48.810;9.148;2023-12-20T23:52:28;2.47;;;1.10;;
28311;SDS011;15572;48.810;9.148;2023-12-20T23:57:26;3.27;;;1.13;;
